sensor_id;sensor_type;location;lat;lon;timestamp;temperature;humidity
75217;HTU21D;63800;51.972;5.682;2023-04-01T00:01:54;9.36;118.99
75217;HTU21D;63800;51.972;5.682;2023-04-01T00:04:19;9.40;118.99
75217;HTU21D;63800;51.972;5.682;2023-04-01T00:06:46;9.53;118.99
75217;HTU21D;63800;51.972;5.682;2023-04-01T00:09:13;9.53;118.99
75217;HTU21D;63800;51.972;5.682;2023-04-01T00:11:39;9.46;118.99
75217;HTU21D;63800;51.972;5.682;2023-04-01T00:14:05;9.50;118.99
75217;HTU21D;63800;51.972;5.682;2023-04-01T00:16:30;9.59;118.99
75217;HTU21D;63800;51.972;5.682;2023-04-01T00:18:56;9.52;118.99
75217;HTU21D;63800;51.972;5.682;2023-04-01T00:21:22;9.50;118.99
75217;HTU21D;63800;51.972;5.682;2023-04-01T00:23:51;9.46;118.99
75217;HTU21D;63800;51.972;5.682;2023-04-01T00:26:17;9.65;118.99
75217;HTU21D;63800;51.972;5.682;2023-04-01T00:28:45;9.67;118.99
75217;HTU21D;63800;51.972;5.682;2023-04-01T00:31:11;9.68;118.99
75217;HTU21D;63800;51.972;5.682;2023-04-01T00:33:38;9.82;118.99
75217;HTU21D;63800;51.972;5.682;2023-04-01T00:36:07;9.63;118.99
75217;HTU21D;63800;51.972;5.682;2023-04-01T00:38:34;9.80;118.99
75217;HTU21D;63800;51.972;5.682;2023-04-01T00:40:59;9.71;118.99
75217;HTU21D;63800;51.972;5.682;2023-04-01T00:43:25;9.72;118.99
75217;HTU21D;63800;51.972;5.682;2023-04-01T00:45:51;9.70;118.99
75217;HTU21D;63800;51.972;5.682;2023-04-01T00:48:22;9.65;118.99
75217;HTU21D;63800;51.972;5.682;2023-04-01T00:50:52;9.71;118.99
75217;HTU21D;63800;51.972;5.682;2023-04-01T00:53:20;9.79;118.99
75217;HTU21D;63800;51.972;5.682;2023-04-01T00:55:51;9.66;118.99
75217;HTU21D;63800;51.972;5.682;2023-04-01T00:58:21;9.79;118.99
75217;HTU21D;63800;51.972;5.682;2023-04-01T01:00:49;9.68;118.99
75217;HTU21D;63800;51.972;5.682;2023-04-01T01:03:15;9.71;118.99
75217;HTU21D;63800;51.972;5.682;2023-04-01T01:06:03;9.80;118.99
75217;HTU21D;63800;51.972;5.682;2023-04-01T01:11:10;9.79;118.99
75217;HTU21D;63800;51.972;5.682;2023-04-01T01:13:54;9.74;118.99
75217;HTU21D;63800;51.972;5.682;2023-04-01T01:16:36;9.75;118.99
75217;HTU21D;63800;51.972;5.682;2023-04-01T01:19:27;9.86;118.99
75217;HTU21D;63800;51.972;5.682;2023-04-01T01:32:38;9.71;118.99
75217;HTU21D;63800;51.972;5.682;2023-04-01T01:35:20;9.54;118.99
75217;HTU21D;63800;51.972;5.682;2023-04-01T01:37:51;9.72;118.48
75217;HTU21D;63800;51.972;5.682;2023-04-01T01:40:17;9.63;117.86
75217;HTU21D;63800;51.972;5.682;2023-04-01T01:42:47;9.51;118.12
75217;HTU21D;63800;51.972;5.682;2023-04-01T01:45:16;9.60;117.69
75217;HTU21D;63800;51.972;5.682;2023-04-01T01:47:45;9.64;117.02
75217;HTU21D;63800;51.972;5.682;2023-04-01T01:50:11;9.61;117.91
75217;HTU21D;63800;51.972;5.682;2023-04-01T01:52:37;9.55;117.47
75217;HTU21D;63800;51.972;5.682;2023-04-01T01:55:03;9.55;116.52
75217;HTU21D;63800;51.972;5.682;2023-04-01T01:57:47;9.49;116.41
75217;HTU21D;63800;51.972;5.682;2023-04-01T02:00:13;9.51;117.09
75217;HTU21D;63800;51.972;5.682;2023-04-01T02:02:40;9.53;116.89
75217;HTU21D;63800;51.972;5.682;2023-04-01T02:05:10;9.57;116.40
75217;HTU21D;63800;51.972;5.682;2023-04-01T02:07:38;9.45;117.76
75217;HTU21D;63800;51.972;5.682;2023-04-01T02:10:05;9.41;118.40
75217;HTU21D;63800;51.972;5.682;2023-04-01T02:12:33;9.49;118.66
75217;HTU21D;63800;51.972;5.682;2023-04-01T02:15:09;9.49;118.00
75217;HTU21D;63800;51.972;5.682;2023-04-01T02:17:39;9.47;118.99
75217;HTU21D;63800;51.972;5.682;2023-04-01T02:20:22;9.35;118.99
75217;HTU21D;63800;51.972;5.682;2023-04-01T02:22:51;9.39;118.99
75217;HTU21D;63800;51.972;5.682;2023-04-01T02:25:23;9.37;118.99
75217;HTU21D;63800;51.972;5.682;2023-04-01T02:27:49;9.44;118.99
75217;HTU21D;63800;51.972;5.682;2023-04-01T02:30:15;9.50;118.99
75217;HTU21D;63800;51.972;5.682;2023-04-01T02:32:42;9.21;118.99
75217;HTU21D;63800;51.972;5.682;2023-04-01T02:35:13;9.36;118.99
75217;HTU21D;63800;51.972;5.682;2023-04-01T02:37:40;9.33;118.99
75217;HTU21D;63800;51.972;5.682;2023-04-01T02:40:08;9.35;118.99
75217;HTU21D;63800;51.972;5.682;2023-04-01T02:42:34;9.36;118.99
75217;HTU21D;63800;51.972;5.682;2023-04-01T02:45:00;9.35;118.99
75217;HTU21D;63800;51.972;5.682;2023-04-01T02:47:26;9.39;118.99
75217;HTU21D;63800;51.972;5.682;2023-04-01T02:49:51;9.26;118.99
75217;HTU21D;63800;51.972;5.682;2023-04-01T02:52:26;9.40;118.99
75217;HTU21D;63800;51.972;5.682;2023-04-01T02:54:52;9.17;118.99
75217;HTU21D;63800;51.972;5.682;2023-04-01T02:57:17;9.30;118.99
75217;HTU21D;63800;51.972;5.682;2023-04-01T02:59:42;9.20;118.99
75217;HTU21D;63800;51.972;5.682;2023-04-01T03:02:08;9.35;118.99
75217;HTU21D;63800;51.972;5.682;2023-04-01T03:04:34;9.16;118.99
75217;HTU21D;63800;51.972;5.682;2023-04-01T03:06:59;9.33;118.99
75217;HTU21D;63800;51.972;5.682;2023-04-01T03:09:25;9.44;118.99
75217;HTU21D;63800;51.972;5.682;2023-04-01T03:11:50;9.36;118.99
75217;HTU21D;63800;51.972;5.682;2023-04-01T03:14:15;9.30;118.99
75217;HTU21D;63800;51.972;5.682;2023-04-01T03:16:41;9.18;118.99
75217;HTU21D;63800;51.972;5.682;2023-04-01T03:19:06;9.36;118.99
75217;HTU21D;63800;51.972;5.682;2023-04-01T03:21:32;9.15;118.99
75217;HTU21D;63800;51.972;5.682;2023-04-01T03:23:57;9.24;118.99
75217;HTU21D;63800;51.972;5.682;2023-04-01T03:26:24;9.22;118.99
75217;HTU21D;63800;51.972;5.682;2023-04-01T03:28:49;9.30;118.99
75217;HTU21D;63800;51.972;5.682;2023-04-01T03:31:15;9.21;118.99
75217;HTU21D;63800;51.972;5.682;2023-04-01T03:33:41;9.19;118.99
75217;HTU21D;63800;51.972;5.682;2023-04-01T03:36:07;9.30;118.99
75217;HTU21D;63800;51.972;5.682;2023-04-01T03:38:34;9.12;118.99
75217;HTU21D;63800;51.972;5.682;2023-04-01T03:40:59;9.16;118.99
75217;HTU21D;63800;51.972;5.682;2023-04-01T03:43:25;9.10;118.99
75217;HTU21D;63800;51.972;5.682;2023-04-01T03:45:52;9.21;118.99
75217;HTU21D;63800;51.972;5.682;2023-04-01T03:48:18;9.26;118.99
75217;HTU21D;63800;51.972;5.682;2023-04-01T03:50:44;9.09;118.99
75217;HTU21D;63800;51.972;5.682;2023-04-01T03:53:10;9.17;118.99
75217;HTU21D;63800;51.972;5.682;2023-04-01T03:55:36;9.15;118.99
75217;HTU21D;63800;51.972;5.682;2023-04-01T03:58:03;9.09;118.99
75217;HTU21D;63800;51.972;5.682;2023-04-01T04:00:29;9.11;118.99
75217;HTU21D;63800;51.972;5.682;2023-04-01T04:02:55;9.04;118.99
75217;HTU21D;63800;51.972;5.682;2023-04-01T04:05:23;8.98;118.99
75217;HTU21D;63800;51.972;5.682;2023-04-01T04:07:49;9.18;118.99
75217;HTU21D;63800;51.972;5.682;2023-04-01T04:10:14;9.26;118.99
75217;HTU21D;63800;51.972;5.682;2023-04-01T04:12:40;9.21;118.99
75217;HTU21D;63800;51.972;5.682;2023-04-01T04:15:06;9.09;118.99
75217;HTU21D;63800;51.972;5.682;2023-04-01T04:17:32;9.02;118.99
75217;HTU21D;63800;51.972;5.682;2023-04-01T04:19:57;9.10;118.99
75217;HTU21D;63800;51.972;5.682;2023-04-01T04:22:23;9.24;118.99
75217;HTU21D;63800;51.972;5.682;2023-04-01T04:24:48;9.19;118.99
75217;HTU21D;63800;51.972;5.682;2023-04-01T04:27:14;9.05;118.99
75217;HTU21D;63800;51.972;5.682;2023-04-01T04:29:40;9.23;118.99
75217;HTU21D;63800;51.972;5.682;2023-04-01T04:32:05;9.20;118.99
75217;HTU21D;63800;51.972;5.682;2023-04-01T04:34:31;9.02;118.99
75217;HTU21D;63800;51.972;5.682;2023-04-01T04:36:56;9.22;118.99
75217;HTU21D;63800;51.972;5.682;2023-04-01T04:39:22;9.06;118.99
75217;HTU21D;63800;51.972;5.682;2023-04-01T04:41:48;9.11;118.99
75217;HTU21D;63800;51.972;5.682;2023-04-01T04:44:13;9.22;118.99
75217;HTU21D;63800;51.972;5.682;2023-04-01T04:46:39;9.17;118.99
75217;HTU21D;63800;51.972;5.682;2023-04-01T04:49:05;9.25;118.99
75217;HTU21D;63800;51.972;5.682;2023-04-01T04:51:31;9.24;118.99
75217;HTU21D;63800;51.972;5.682;2023-04-01T04:53:59;9.15;118.99
75217;HTU21D;63800;51.972;5.682;2023-04-01T04:56:25;9.16;118.99
75217;HTU21D;63800;51.972;5.682;2023-04-01T04:58:51;9.20;118.99
75217;HTU21D;63800;51.972;5.682;2023-04-01T05:01:17;9.19;118.99
75217;HTU21D;63800;51.972;5.682;2023-04-01T05:03:43;9.32;118.99
75217;HTU21D;63800;51.972;5.682;2023-04-01T05:06:11;9.20;118.99
75217;HTU21D;63800;51.972;5.682;2023-04-01T05:08:37;9.35;118.99
75217;HTU21D;63800;51.972;5.682;2023-04-01T05:11:09;9.33;118.99
75217;HTU21D;63800;51.972;5.682;2023-04-01T05:13:36;9.30;118.99
75217;HTU21D;63800;51.972;5.682;2023-04-01T05:16:02;9.31;118.99
75217;HTU21D;63800;51.972;5.682;2023-04-01T05:18:28;9.41;118.99
75217;HTU21D;63800;51.972;5.682;2023-04-01T05:20:54;9.46;118.99
75217;HTU21D;63800;51.972;5.682;2023-04-01T05:23:21;9.45;118.99
75217;HTU21D;63800;51.972;5.682;2023-04-01T05:25:48;9.38;118.99
75217;HTU21D;63800;51.972;5.682;2023-04-01T05:28:15;9.40;118.99
75217;HTU21D;63800;51.972;5.682;2023-04-01T05:30:41;9.50;118.99
75217;HTU21D;63800;51.972;5.682;2023-04-01T05:33:07;9.45;118.99
75217;HTU21D;63800;51.972;5.682;2023-04-01T05:35:33;9.45;118.99
75217;HTU21D;63800;51.972;5.682;2023-04-01T05:37:58;9.42;118.99
75217;HTU21D;63800;51.972;5.682;2023-04-01T05:40:24;9.47;118.99
75217;HTU21D;63800;51.972;5.682;2023-04-01T05:42:50;9.49;118.99
75217;HTU21D;63800;51.972;5.682;2023-04-01T05:45:15;9.52;118.99
75217;HTU21D;63800;51.972;5.682;2023-04-01T05:47:41;9.49;118.99
75217;HTU21D;63800;51.972;5.682;2023-04-01T05:50:08;9.49;118.99
75217;HTU21D;63800;51.972;5.682;2023-04-01T05:52:34;9.54;118.99
75217;HTU21D;63800;51.972;5.682;2023-04-01T05:54:59;9.63;118.99
75217;HTU21D;63800;51.972;5.682;2023-04-01T05:57:25;9.54;118.99
75217;HTU21D;63800;51.972;5.682;2023-04-01T05:59:51;9.62;118.99
75217;HTU21D;63800;51.972;5.682;2023-04-01T06:02:17;9.56;118.99
75217;HTU21D;63800;51.972;5.682;2023-04-01T06:04:42;9.64;118.99
75217;HTU21D;63800;51.972;5.682;2023-04-01T06:07:16;9.66;118.99
75217;HTU21D;63800;51.972;5.682;2023-04-01T06:09:43;9.60;118.99
75217;HTU21D;63800;51.972;5.682;2023-04-01T06:15:11;9.63;118.99
75217;HTU21D;63800;51.972;5.682;2023-04-01T06:17:57;9.56;118.99
75217;HTU21D;63800;51.972;5.682;2023-04-01T06:37:04;9.66;118.99
75217;HTU21D;63800;51.972;5.682;2023-04-01T06:39:54;9.76;118.99
75217;HTU21D;63800;51.972;5.682;2023-04-01T06:42:39;9.81;118.99
75217;HTU21D;63800;51.972;5.682;2023-04-01T06:45:29;9.79;118.99
75217;HTU21D;63800;51.972;5.682;2023-04-01T06:48:19;9.78;118.99
75217;HTU21D;63800;51.972;5.682;2023-04-01T06:51:01;9.69;118.99
75217;HTU21D;63800;51.972;5.682;2023-04-01T06:53:56;9.82;118.99
75217;HTU21D;63800;51.972;5.682;2023-04-01T06:56:27;9.78;118.99
75217;HTU21D;63800;51.972;5.682;2023-04-01T06:59:07;9.80;118.99
75217;HTU21D;63800;51.972;5.682;2023-04-01T07:01:37;9.67;118.99
75217;HTU21D;63800;51.972;5.682;2023-04-01T07:04:14;9.64;118.99
75217;HTU21D;63800;51.972;5.682;2023-04-01T07:06:56;9.75;118.99
75217;HTU21D;63800;51.972;5.682;2023-04-01T07:09:49;9.88;118.99
75217;HTU21D;63800;51.972;5.682;2023-04-01T07:12:16;9.88;118.99
75217;HTU21D;63800;51.972;5.682;2023-04-01T07:14:46;9.83;118.99
75217;HTU21D;63800;51.972;5.682;2023-04-01T07:17:23;9.91;118.99
75217;HTU21D;63800;51.972;5.682;2023-04-01T07:20:03;9.86;118.99
75217;HTU21D;63800;51.972;5.682;2023-04-01T07:22:40;9.84;118.99
75217;HTU21D;63800;51.972;5.682;2023-04-01T07:25:37;9.85;118.99
75217;HTU21D;63800;51.972;5.682;2023-04-01T07:28:15;9.84;118.99
75217;HTU21D;63800;51.972;5.682;2023-04-01T07:30:57;9.90;118.99
75217;HTU21D;63800;51.972;5.682;2023-04-01T07:36:33;9.96;118.99
75217;HTU21D;63800;51.972;5.682;2023-04-01T07:39:22;9.91;118.99
75217;HTU21D;63800;51.972;5.682;2023-04-01T07:42:06;9.92;118.99
75217;HTU21D;63800;51.972;5.682;2023-04-01T07:45:00;9.94;118.99
75217;HTU21D;63800;51.972;5.682;2023-04-01T07:50:29;9.92;118.99
75217;HTU21D;63800;51.972;5.682;2023-04-01T07:53:26;10.00;118.99
75217;HTU21D;63800;51.972;5.682;2023-04-01T07:58:51;9.92;118.99
75217;HTU21D;63800;51.972;5.682;2023-04-01T08:06:50;9.97;118.99
75217;HTU21D;63800;51.972;5.682;2023-04-01T08:22:20;10.05;118.99
75217;HTU21D;63800;51.972;5.682;2023-04-01T08:24:49;10.07;118.99
75217;HTU21D;63800;51.972;5.682;2023-04-01T08:27:22;10.15;118.99
75217;HTU21D;63800;51.972;5.682;2023-04-01T08:29:54;10.08;118.99
75217;HTU21D;63800;51.972;5.682;2023-04-01T08:32:42;10.06;118.99
75217;HTU21D;63800;51.972;5.682;2023-04-01T08:35:14;10.06;118.99
75217;HTU21D;63800;51.972;5.682;2023-04-01T08:37:43;10.11;118.99
75217;HTU21D;63800;51.972;5.682;2023-04-01T08:49:17;10.21;118.99
75217;HTU21D;63800;51.972;5.682;2023-04-01T08:52:01;10.23;118.99
75217;HTU21D;63800;51.972;5.682;2023-04-01T09:00:15;10.26;118.99
75217;HTU21D;63800;51.972;5.682;2023-04-01T09:10:56;10.26;118.99
75217;HTU21D;63800;51.972;5.682;2023-04-01T09:36:03;10.64;117.47
75217;HTU21D;63800;51.972;5.682;2023-04-01T09:38:48;10.64;117.72
75217;HTU21D;63800;51.972;5.682;2023-04-01T09:41:40;10.58;118.37
75217;HTU21D;63800;51.972;5.682;2023-04-01T09:44:24;10.64;118.99
75217;HTU21D;63800;51.972;5.682;2023-04-01T09:58:32;10.88;116.54
75217;HTU21D;63800;51.972;5.682;2023-04-01T10:18:55;11.85;108.24
75217;HTU21D;63800;51.972;5.682;2023-04-01T10:27:12;12.32;106.46
75217;HTU21D;63800;51.972;5.682;2023-04-01T10:29:51;12.35;106.68
75217;HTU21D;63800;51.972;5.682;2023-04-01T10:49:48;12.85;100.19
75217;HTU21D;63800;51.972;5.682;2023-04-01T11:12:29;12.52;102.90
75217;HTU21D;63800;51.972;5.682;2023-04-01T11:15:32;12.41;102.35
75217;HTU21D;63800;51.972;5.682;2023-04-01T11:18:49;12.22;104.78
75217;HTU21D;63800;51.972;5.682;2023-04-01T11:26:39;12.28;102.70
75217;HTU21D;63800;51.972;5.682;2023-04-01T11:45:47;12.22;104.40
75217;HTU21D;63800;51.972;5.682;2023-04-01T11:53:59;11.96;105.18
75217;HTU21D;63800;51.972;5.682;2023-04-01T11:56:44;11.93;107.78
75217;HTU21D;63800;51.972;5.682;2023-04-01T12:05:08;11.72;109.43
75217;HTU21D;63800;51.972;5.682;2023-04-01T12:13:29;11.76;111.67
75217;HTU21D;63800;51.972;5.682;2023-04-01T12:18:59;11.73;111.06
75217;HTU21D;63800;51.972;5.682;2023-04-01T12:24:42;11.71;109.64
75217;HTU21D;63800;51.972;5.682;2023-04-01T12:46:53;11.41;110.84
75217;HTU21D;63800;51.972;5.682;2023-04-01T12:49:41;11.42;110.42
75217;HTU21D;63800;51.972;5.682;2023-04-01T12:52:18;11.49;109.49
75217;HTU21D;63800;51.972;5.682;2023-04-01T12:55:09;11.57;108.84
75217;HTU21D;63800;51.972;5.682;2023-04-01T13:01:10;11.75;110.17
75217;HTU21D;63800;51.972;5.682;2023-04-01T13:06:29;11.78;107.75
75217;HTU21D;63800;51.972;5.682;2023-04-01T13:14:12;11.99;107.59
75217;HTU21D;63800;51.972;5.682;2023-04-01T13:19:30;11.84;108.90
75217;HTU21D;63800;51.972;5.682;2023-04-01T13:24:41;11.67;111.05
75217;HTU21D;63800;51.972;5.682;2023-04-01T13:27:17;11.55;110.51
75217;HTU21D;63800;51.972;5.682;2023-04-01T13:33:05;11.43;111.52
75217;HTU21D;63800;51.972;5.682;2023-04-01T13:44:40;11.42;115.48
75217;HTU21D;63800;51.972;5.682;2023-04-01T14:03:14;11.57;114.57
75217;HTU21D;63800;51.972;5.682;2023-04-01T14:05:47;11.46;116.08
75217;HTU21D;63800;51.972;5.682;2023-04-01T14:11:25;11.61;113.77
75217;HTU21D;63800;51.972;5.682;2023-04-01T14:25:10;11.54;114.34
75217;HTU21D;63800;51.972;5.682;2023-04-01T14:30:34;11.44;113.80
75217;HTU21D;63800;51.972;5.682;2023-04-01T14:50:46;11.81;112.84
75217;HTU21D;63800;51.972;5.682;2023-04-01T14:54:30;11.82;112.45
75217;HTU21D;63800;51.972;5.682;2023-04-01T14:56:43;11.56;116.53
75217;HTU21D;63800;51.972;5.682;2023-04-01T15:01:55;11.68;114.38
75217;HTU21D;63800;51.972;5.682;2023-04-01T15:24:26;11.67;116.00
75217;HTU21D;63800;51.972;5.682;2023-04-01T15:30:14;11.61;116.59
75217;HTU21D;63800;51.972;5.682;2023-04-01T15:35:21;11.67;116.40
75217;HTU21D;63800;51.972;5.682;2023-04-01T15:38:20;11.77;112.97
75217;HTU21D;63800;51.972;5.682;2023-04-01T15:41:23;11.58;113.54
75217;HTU21D;63800;51.972;5.682;2023-04-01T15:43:52;11.55;112.71
75217;HTU21D;63800;51.972;5.682;2023-04-01T15:46:48;11.51;113.90
75217;HTU21D;63800;51.972;5.682;2023-04-01T15:49:31;11.62;111.76
75217;HTU21D;63800;51.972;5.682;2023-04-01T15:57:32;11.70;110.67
75217;HTU21D;63800;51.972;5.682;2023-04-01T16:02:43;11.53;113.33
75217;HTU21D;63800;51.972;5.682;2023-04-01T16:19:55;11.38;111.20
75217;HTU21D;63800;51.972;5.682;2023-04-01T16:22:34;11.38;111.23
75217;HTU21D;63800;51.972;5.682;2023-04-01T16:31:16;11.27;112.24
75217;HTU21D;63800;51.972;5.682;2023-04-01T16:34:19;11.24;112.70
75217;HTU21D;63800;51.972;5.682;2023-04-01T16:39:41;11.10;112.44
75217;HTU21D;63800;51.972;5.682;2023-04-01T16:42:24;11.24;112.48
75217;HTU21D;63800;51.972;5.682;2023-04-01T16:44:55;11.29;110.79
75217;HTU21D;63800;51.972;5.682;2023-04-01T16:47:29;11.23;111.26
75217;HTU21D;63800;51.972;5.682;2023-04-01T16:50:05;11.05;113.72
75217;HTU21D;63800;51.972;5.682;2023-04-01T16:53:08;11.04;114.45
75217;HTU21D;63800;51.972;5.682;2023-04-01T16:55:45;11.01;113.12
75217;HTU21D;63800;51.972;5.682;2023-04-01T16:58:24;11.03;111.97
75217;HTU21D;63800;51.972;5.682;2023-04-01T17:00:58;11.05;111.25
75217;HTU21D;63800;51.972;5.682;2023-04-01T17:03:35;10.86;112.77
75217;HTU21D;63800;51.972;5.682;2023-04-01T17:20:28;10.87;110.00
75217;HTU21D;63800;51.972;5.682;2023-04-01T17:25:38;10.75;109.91
75217;HTU21D;63800;51.972;5.682;2023-04-01T17:36:03;10.59;109.87
75217;HTU21D;63800;51.972;5.682;2023-04-01T17:38:54;10.63;109.48
75217;HTU21D;63800;51.972;5.682;2023-04-01T17:52:15;10.35;109.72
75217;HTU21D;63800;51.972;5.682;2023-04-01T18:03:23;10.19;109.47
75217;HTU21D;63800;51.972;5.682;2023-04-01T18:08:56;10.18;109.52
75217;HTU21D;63800;51.972;5.682;2023-04-01T18:17:12;10.07;107.59
75217;HTU21D;63800;51.972;5.682;2023-04-01T18:25:41;10.03;107.67
75217;HTU21D;63800;51.972;5.682;2023-04-01T18:31:05;9.82;108.49
75217;HTU21D;63800;51.972;5.682;2023-04-01T18:38:57;9.85;109.09
75217;HTU21D;63800;51.972;5.682;2023-04-01T18:41:54;9.72;108.35
75217;HTU21D;63800;51.972;5.682;2023-04-01T18:47:44;9.53;110.33
75217;HTU21D;63800;51.972;5.682;2023-04-01T18:50:28;9.76;108.44
75217;HTU21D;63800;51.972;5.682;2023-04-01T18:53:28;9.57;111.08
75217;HTU21D;63800;51.972;5.682;2023-04-01T18:55:58;9.74;109.28
75217;HTU21D;63800;51.972;5.682;2023-04-01T19:09:11;9.66;105.87
75217;HTU21D;63800;51.972;5.682;2023-04-01T19:14:51;9.31;106.47
75217;HTU21D;63800;51.972;5.682;2023-04-01T19:17:29;9.32;108.56
75217;HTU21D;63800;51.972;5.682;2023-04-01T19:25:42;9.23;107.20
75217;HTU21D;63800;51.972;5.682;2023-04-01T19:28:38;9.25;106.43
75217;HTU21D;63800;51.972;5.682;2023-04-01T19:37:01;9.26;106.69
75217;HTU21D;63800;51.972;5.682;2023-04-01T19:45:34;9.04;107.24
75217;HTU21D;63800;51.972;5.682;2023-04-01T19:50:37;9.15;107.01
75217;HTU21D;63800;51.972;5.682;2023-04-01T20:04:10;9.01;107.07
75217;HTU21D;63800;51.972;5.682;2023-04-01T20:06:45;8.91;107.84
75217;HTU21D;63800;51.972;5.682;2023-04-01T20:09:49;8.79;108.39
75217;HTU21D;63800;51.972;5.682;2023-04-01T20:14:56;8.88;106.44
75217;HTU21D;63800;51.972;5.682;2023-04-01T20:17:23;8.82;106.10
75217;HTU21D;63800;51.972;5.682;2023-04-01T20:20:00;8.86;107.37
75217;HTU21D;63800;51.972;5.682;2023-04-01T20:22:31;8.92;106.22
75217;HTU21D;63800;51.972;5.682;2023-04-01T20:25:06;8.88;106.96
75217;HTU21D;63800;51.972;5.682;2023-04-01T20:27:40;8.79;108.54
75217;HTU21D;63800;51.972;5.682;2023-04-01T20:37:56;8.68;106.45
75217;HTU21D;63800;51.972;5.682;2023-04-01T20:40:27;8.74;105.56
75217;HTU21D;63800;51.972;5.682;2023-04-01T20:43:42;8.73;106.12
75217;HTU21D;63800;51.972;5.682;2023-04-01T21:00:33;8.43;106.24
75217;HTU21D;63800;51.972;5.682;2023-04-01T21:11:31;8.41;105.64
75217;HTU21D;63800;51.972;5.682;2023-04-01T21:27:39;8.39;104.11
75217;HTU21D;63800;51.972;5.682;2023-04-01T21:30:18;8.26;104.59
75217;HTU21D;63800;51.972;5.682;2023-04-01T21:35:53;8.18;102.83
75217;HTU21D;63800;51.972;5.682;2023-04-01T21:49:55;8.16;103.68
75217;HTU21D;63800;51.972;5.682;2023-04-01T21:52:37;8.22;102.80
75217;HTU21D;63800;51.972;5.682;2023-04-01T22:04:01;8.24;101.70
75217;HTU21D;63800;51.972;5.682;2023-04-01T22:06:37;8.01;101.54
75217;HTU21D;63800;51.972;5.682;2023-04-01T22:09:07;8.07;101.89
75217;HTU21D;63800;51.972;5.682;2023-04-01T22:11:46;8.17;100.22
75217;HTU21D;63800;51.972;5.682;2023-04-01T22:17:32;7.91;100.82
75217;HTU21D;63800;51.972;5.682;2023-04-01T22:19:54;7.94;101.31
75217;HTU21D;63800;51.972;5.682;2023-04-01T22:22:45;7.87;100.00
75217;HTU21D;63800;51.972;5.682;2023-04-01T22:25:19;7.89;100.58
75217;HTU21D;63800;51.972;5.682;2023-04-01T22:28:16;7.98;100.42
75217;HTU21D;63800;51.972;5.682;2023-04-01T22:30:51;8.01;99.90
75217;HTU21D;63800;51.972;5.682;2023-04-01T22:33:44;7.88;100.96
75217;HTU21D;63800;51.972;5.682;2023-04-01T22:36:19;7.83;103.03
75217;HTU21D;63800;51.972;5.682;2023-04-01T22:39:20;7.74;102.63
75217;HTU21D;63800;51.972;5.682;2023-04-01T22:47:38;7.72;98.28
75217;HTU21D;63800;51.972;5.682;2023-04-01T22:50:19;7.73;98.10
75217;HTU21D;63800;51.972;5.682;2023-04-01T22:52:50;7.76;99.03
75217;HTU21D;63800;51.972;5.682;2023-04-01T22:55:26;7.64;98.85
75217;HTU21D;63800;51.972;5.682;2023-04-01T22:58:09;7.49;98.93
75217;HTU21D;63800;51.972;5.682;2023-04-01T23:00:44;7.50;99.28
75217;HTU21D;63800;51.972;5.682;2023-04-01T23:03:31;7.48;98.89
75217;HTU21D;63800;51.972;5.682;2023-04-01T23:06:02;7.53;100.19
75217;HTU21D;63800;51.972;5.682;2023-04-01T23:09:18;7.45;99.54
75217;HTU21D;63800;51.972;5.682;2023-04-01T23:11:49;7.55;100.06
75217;HTU21D;63800;51.972;5.682;2023-04-01T23:28:17;7.53;100.25
75217;HTU21D;63800;51.972;5.682;2023-04-01T23:30:47;7.34;100.40
75217;HTU21D;63800;51.972;5.682;2023-04-01T23:38:23;7.28;98.96
75217;HTU21D;63800;51.972;5.682;2023-04-01T23:40:50;7.25;99.67
75217;HTU21D;63800;51.972;5.682;2023-04-01T23:43:39;7.28;100.30
75217;HTU21D;63800;51.972;5.682;2023-04-01T23:46:06;7.23;100.22
75217;HTU21D;63800;51.972;5.682;2023-04-01T23:48:42;7.16;100.31
75217;HTU21D;63800;51.972;5.682;2023-04-01T23:51:27;7.14;100.43
75217;HTU21D;63800;51.972;5.682;2023-04-01T23:54:03;7.23;99.01
75217;HTU21D;63800;51.972;5.682;2023-04-01T23:56:35;7.22;100.41
75217;HTU21D;63800;51.972;5.682;2023-04-01T23:59:02;7.23;98.32
